Vandenberg Air Force Base
KVBG : now visible

Airfield :











YOU CAN JOIN US ON...

 
LOGIN :

Register | Disclaimer

   EN    FR    IT 

 









Legend :    VFR   Marginal VFR   IFR   Intensive IFR   Very Intensive IFR
Visi :
Ceiling :
>= 8 km
>= 3000ft
5 to 8 km
1000 to 3000 ft
1500m to 5 km
500 to 1000 ft
800 to 1500m
200 to 500 ft
< 800m
< 200 ft
Symbols :   Thunderstorms  Fog  Heavy snow  Heavy precipitations  Wind > 20 kt






- Airport Elevation : 369 ft


KVBG - Vandenberg Air Force Base

CURRENT METAR :
  • 171658Z AUTO 03006KT 10SM CLR 08/05 A3025 RMK AO2 SLP248 T00840046 $

EXPIRED METARs :
  • 171558Z 06007KT 10SM CLR 05/03 A3024 RMK AO2A SLP245 T00530031 $
  • 171458Z COR 05007KT 10SM CLR 04/02 A3022 RMK AO2A SLP239 T00380021 53009 $ COR 1501

TAF AMD TAF KVBG
Valid from the 17 at 00:00 until the 18 at 05:00 UTC


170004Z 1700/1805 15015G20KT 3200 -SHRA BKN004 OVC020 610606 510003 QNH2991INS
TEMPO 1700/1701 15025G35KT 8000 -SHRA BR SCT006 BKN010 OVC020
TEMPO 1701/1704 4800 SHRA BR SCT006 OVC010
BECMG 1704/1705 32009KT 9999 VCSH FEW006 SCT010 BKN025 QNH2992INS
BECMG 1709/1710 34009KT 9999 NSW BKN030 QNH2996INS
BECMG 1717/1718 34012KT 9999 FEW030 FEW250 QNH2999INS
BECMG 1802/1803 36009KT 9999 BKN020 QNH3001INS TX15/1720Z TN04/1713Z LAST NO AMDS AFT 1701 NEXT 2115



MET'MAP, your aeronautical weather chart ! - Copyright ORBIFLY December 2007 - Disclaimer

ORBIFLY MET'MAP TEAM :

Programming & Development : Alexandra Zaïnal
Concept & original design : Baudouin d'Aumeries
Assistance for programming : Marc-Olivier Méhu
Technical & hardware support : Manuel Goepfert

Contact : metmap@orbifly.com




SOURCES & CREDITS :

   NOAA       Earth
Advisory